createdAt,value
2022-12-31T00:01:00.931Z,99.90
2022-12-31T00:03:27.994Z,99.90
2022-12-31T00:05:54.856Z,99.90
2022-12-31T00:08:21.552Z,99.90
2022-12-31T00:10:48.494Z,99.90
2022-12-31T00:13:15.648Z,99.90
2022-12-31T00:15:42.942Z,99.90
2022-12-31T00:18:10.507Z,99.90
2022-12-31T00:20:41.941Z,99.90
2022-12-31T00:23:10.680Z,99.90
2022-12-31T00:25:37.654Z,99.90
2022-12-31T00:28:05.019Z,99.90
2022-12-31T00:30:31.841Z,99.90
2022-12-31T00:32:58.583Z,99.90
2022-12-31T00:35:25.321Z,99.90
2022-12-31T00:37:53.281Z,99.90
2022-12-31T00:40:19.906Z,99.90
2022-12-31T00:42:46.527Z,99.90
2022-12-31T00:45:13.142Z,99.90
2022-12-31T00:47:39.800Z,99.90
2022-12-31T00:50:07.020Z,99.90
2022-12-31T00:52:33.675Z,99.90
2022-12-31T00:55:00.342Z,99.90
2022-12-31T00:57:26.991Z,99.90
2022-12-31T00:59:53.673Z,99.90
2022-12-31T01:02:20.457Z,99.90
2022-12-31T01:04:47.269Z,99.90
2022-12-31T01:07:13.884Z,99.90
2022-12-31T01:09:40.550Z,99.90
2022-12-31T01:12:07.370Z,99.90
2022-12-31T01:14:34.056Z,99.90
2022-12-31T01:17:00.716Z,99.90
2022-12-31T01:19:29.533Z,99.90
2022-12-31T01:21:57.102Z,99.90
2022-12-31T01:24:24.022Z,99.90
2022-12-31T01:26:51.706Z,99.90
2022-12-31T01:29:18.891Z,99.90
2022-12-31T01:31:45.575Z,99.90
2022-12-31T01:34:12.315Z,99.90
2022-12-31T01:36:39.162Z,99.90
2022-12-31T01:39:07.586Z,99.90
2022-12-31T01:41:37.052Z,99.90
2022-12-31T01:44:12.641Z,99.90
2022-12-31T01:46:58.295Z,99.90
2022-12-31T01:49:53.959Z,99.90
2022-12-31T01:52:37.622Z,99.90
2022-12-31T01:55:30.520Z,99.90
2022-12-31T01:58:10.223Z,99.90
2022-12-31T02:00:37.134Z,99.90
2022-12-31T02:03:06.744Z,99.90
2022-12-31T02:05:37.970Z,99.90
2022-12-31T02:08:06.009Z,99.90
2022-12-31T02:10:33.012Z,99.90
2022-12-31T02:12:59.981Z,99.90
2022-12-31T02:15:59.019Z,99.90
2022-12-31T02:18:49.900Z,99.90
2022-12-31T02:21:41.752Z,99.90
2022-12-31T02:24:18.712Z,99.90
2022-12-31T02:27:08.691Z,99.90
2022-12-31T02:30:02.317Z,99.90
2022-12-31T02:32:52.840Z,99.90
2022-12-31T02:35:29.191Z,99.90
2022-12-31T02:38:08.935Z,99.90
2022-12-31T02:40:38.277Z,99.90
2022-12-31T02:43:05.146Z,99.90
2022-12-31T02:45:39.853Z,99.90
2022-12-31T02:48:40.093Z,99.90
2022-12-31T02:51:42.135Z,99.90
2022-12-31T02:54:29.364Z,99.90
2022-12-31T02:57:04.273Z,99.90
2022-12-31T03:00:20.122Z,99.90
2022-12-31T03:02:48.954Z,99.90
2022-12-31T03:05:19.211Z,99.90
2022-12-31T03:07:46.461Z,99.90
2022-12-31T03:10:13.124Z,99.90
2022-12-31T03:12:48.260Z,99.90
2022-12-31T03:15:22.588Z,99.90
2022-12-31T03:17:53.356Z,99.90
2022-12-31T03:20:41.089Z,99.90
2022-12-31T03:23:10.589Z,99.90
2022-12-31T03:25:39.950Z,99.90
2022-12-31T03:28:18.653Z,99.90
2022-12-31T03:30:47.975Z,99.90
2022-12-31T03:33:15.040Z,99.90
2022-12-31T03:35:43.675Z,99.90
2022-12-31T03:38:10.362Z,99.90
2022-12-31T03:40:44.275Z,99.90
2022-12-31T03:43:11.445Z,99.90
2022-12-31T03:45:38.590Z,99.90
2022-12-31T03:48:07.005Z,99.90
2022-12-31T03:50:33.823Z,99.90
2022-12-31T03:53:01.380Z,99.90
2022-12-31T03:55:28.090Z,99.90
2022-12-31T03:57:54.734Z,99.90
2022-12-31T04:00:22.368Z,99.90
2022-12-31T04:02:49.907Z,99.90
2022-12-31T04:05:18.153Z,99.90
2022-12-31T04:07:45.433Z,99.90
2022-12-31T04:10:14.292Z,99.90
2022-12-31T04:12:41.057Z,99.90
2022-12-31T04:15:11.069Z,99.90
2022-12-31T04:17:37.795Z,99.90
2022-12-31T04:20:04.797Z,99.90
2022-12-31T04:22:31.436Z,99.90
2022-12-31T04:24:58.137Z,99.90
2022-12-31T04:27:24.737Z,99.90
2022-12-31T04:29:51.355Z,99.90
2022-12-31T04:32:18.134Z,99.90
2022-12-31T04:34:44.832Z,99.90
2022-12-31T04:37:11.449Z,99.90
2022-12-31T04:39:38.209Z,99.90
2022-12-31T04:42:04.964Z,99.90
2022-12-31T04:44:32.544Z,99.90
2022-12-31T04:46:59.218Z,99.90
2022-12-31T04:49:25.826Z,99.90
2022-12-31T04:51:52.454Z,99.90
2022-12-31T04:54:19.431Z,99.90
2022-12-31T04:56:46.099Z,99.90
2022-12-31T04:59:12.975Z,99.90
2022-12-31T05:01:39.864Z,99.90
2022-12-31T05:04:06.713Z,99.90
2022-12-31T05:06:33.459Z,99.90
2022-12-31T05:09:00.122Z,99.90
2022-12-31T05:11:26.767Z,99.90
2022-12-31T05:13:53.425Z,99.90
2022-12-31T05:16:20.097Z,99.90
2022-12-31T05:18:46.829Z,99.90
2022-12-31T05:21:19.428Z,99.90
2022-12-31T05:23:46.069Z,99.90
2022-12-31T05:26:12.780Z,99.90
2022-12-31T05:28:39.640Z,99.90
2022-12-31T05:31:06.517Z,99.90
2022-12-31T05:33:33.231Z,99.90
2022-12-31T05:35:59.895Z,99.90
2022-12-31T05:38:26.643Z,99.90
2022-12-31T05:41:05.079Z,99.90
2022-12-31T05:43:32.669Z,99.90
2022-12-31T05:46:03.992Z,99.90
2022-12-31T05:48:31.847Z,99.90
2022-12-31T05:50:58.625Z,99.90
2022-12-31T05:53:25.266Z,99.90
2022-12-31T05:55:51.916Z,99.90
2022-12-31T05:58:18.829Z,99.90
2022-12-31T06:00:46.011Z,99.90
2022-12-31T06:03:12.875Z,99.90
2022-12-31T06:05:41.827Z,99.90
2022-12-31T06:08:09.243Z,99.90
2022-12-31T06:10:35.871Z,99.90
2022-12-31T06:13:02.806Z,99.90
2022-12-31T06:15:29.548Z,99.90
2022-12-31T06:17:56.229Z,99.90
2022-12-31T06:20:22.869Z,99.90
2022-12-31T06:22:49.675Z,99.90
2022-12-31T06:25:16.413Z,99.90
2022-12-31T06:27:43.146Z,99.90
2022-12-31T06:30:10.575Z,99.90
2022-12-31T06:32:37.232Z,99.90
2022-12-31T06:35:04.219Z,99.90
2022-12-31T06:37:30.846Z,99.90
2022-12-31T06:39:57.614Z,99.90
2022-12-31T06:42:24.195Z,99.90
2022-12-31T06:44:50.917Z,99.90
2022-12-31T06:47:17.522Z,99.90
2022-12-31T06:49:44.161Z,99.90
2022-12-31T06:52:10.800Z,99.90
2022-12-31T06:54:37.648Z,99.90
2022-12-31T06:57:05.077Z,99.90
2022-12-31T06:59:32.066Z,99.90
2022-12-31T07:02:21.554Z,99.90
2022-12-31T07:04:54.028Z,99.90
2022-12-31T07:07:32.130Z,99.90
2022-12-31T07:10:29.423Z,99.90
2022-12-31T07:13:27.733Z,99.90
2022-12-31T07:16:13.838Z,99.90
2022-12-31T07:18:49.696Z,99.90
2022-12-31T07:21:32.342Z,99.90
2022-12-31T07:23:59.346Z,99.90
2022-12-31T07:26:52.617Z,99.90
2022-12-31T07:29:31.762Z,99.90
2022-12-31T07:32:06.113Z,99.90
2022-12-31T07:34:46.422Z,99.90
2022-12-31T07:37:50.861Z,99.90
2022-12-31T07:40:44.223Z,99.90
2022-12-31T07:43:26.123Z,99.90
2022-12-31T07:46:14.136Z,99.90
2022-12-31T07:48:40.986Z,99.90
2022-12-31T07:51:11.697Z,99.90
2022-12-31T07:53:38.512Z,99.90
2022-12-31T07:56:07.657Z,99.90
2022-12-31T07:58:40.491Z,99.90
2022-12-31T08:01:12.593Z,99.90
2022-12-31T08:04:03.989Z,99.90
2022-12-31T08:06:45.696Z,99.90
2022-12-31T08:09:32.982Z,99.90
2022-12-31T08:12:02.073Z,99.90
2022-12-31T08:14:30.186Z,99.90
2022-12-31T08:16:58.073Z,99.90
2022-12-31T08:19:33.011Z,99.90
2022-12-31T08:22:27.431Z,99.90
2022-12-31T08:25:00.789Z,99.90
2022-12-31T08:27:48.113Z,99.90
2022-12-31T08:30:19.091Z,99.90
2022-12-31T08:33:06.974Z,99.90
2022-12-31T08:35:57.904Z,99.90
2022-12-31T08:38:47.604Z,99.90
2022-12-31T08:41:20.254Z,99.90
2022-12-31T08:43:46.925Z,99.90
2022-12-31T08:46:29.129Z,99.90
2022-12-31T08:48:56.089Z,99.90
2022-12-31T08:51:24.991Z,99.90
2022-12-31T08:53:53.054Z,99.90
2022-12-31T08:56:40.033Z,99.90
2022-12-31T08:59:26.720Z,99.90
2022-12-31T09:02:14.131Z,99.90
2022-12-31T09:05:19.970Z,99.90
2022-12-31T09:08:17.447Z,99.90
2022-12-31T09:10:58.550Z,99.90
2022-12-31T09:13:32.245Z,99.90
2022-12-31T09:16:06.688Z,99.90
2022-12-31T09:18:38.212Z,99.90
2022-12-31T09:21:05.058Z,99.90
2022-12-31T09:23:31.919Z,99.90
2022-12-31T09:26:20.299Z,99.90
2022-12-31T09:28:51.923Z,99.90
2022-12-31T09:31:33.280Z,99.90
2022-12-31T09:34:26.180Z,99.90
2022-12-31T09:36:59.364Z,99.90
2022-12-31T09:39:44.540Z,99.90
2022-12-31T09:42:47.729Z,99.90
2022-12-31T09:45:51.825Z,99.90
2022-12-31T09:48:37.415Z,99.90
2022-12-31T09:51:31.517Z,99.90
2022-12-31T09:54:09.974Z,99.90
2022-12-31T09:56:55.475Z,99.90
2022-12-31T09:59:31.264Z,99.90
2022-12-31T10:02:19.223Z,99.90
2022-12-31T10:05:31.897Z,99.90
2022-12-31T10:08:17.055Z,99.90
2022-12-31T10:10:54.530Z,99.90
2022-12-31T10:13:39.474Z,99.90
2022-12-31T10:16:20.227Z,99.90
2022-12-31T10:19:15.040Z,99.90
2022-12-31T10:22:02.125Z,99.90
2022-12-31T10:24:46.013Z,99.90
2022-12-31T10:27:34.939Z,99.90
2022-12-31T10:30:22.717Z,99.90
2022-12-31T10:33:25.551Z,99.90
2022-12-31T10:36:01.645Z,99.90
2022-12-31T10:39:06.183Z,99.90
2022-12-31T10:42:08.639Z,99.90
2022-12-31T10:44:57.770Z,99.90
2022-12-31T10:47:53.235Z,99.90
2022-12-31T10:50:40.853Z,99.90
2022-12-31T10:53:37.627Z,99.90
2022-12-31T10:56:41.297Z,99.90
2022-12-31T10:59:42.946Z,99.90
2022-12-31T11:02:40.636Z,99.90
2022-12-31T11:05:44.918Z,99.90
2022-12-31T11:08:33.013Z,99.90
2022-12-31T11:11:30.710Z,99.90
2022-12-31T11:14:26.495Z,99.90
2022-12-31T11:17:12.454Z,99.90
2022-12-31T11:20:19.496Z,99.90
2022-12-31T11:23:09.245Z,99.90
2022-12-31T11:26:01.791Z,99.90
2022-12-31T11:29:23.835Z,99.90
2022-12-31T11:31:59.552Z,99.90
2022-12-31T11:35:00.283Z,99.90
2022-12-31T11:37:47.312Z,99.90
2022-12-31T11:40:19.703Z,99.90
2022-12-31T11:43:21.259Z,99.90
2022-12-31T11:46:18.914Z,99.90
2022-12-31T11:49:16.799Z,99.90
2022-12-31T11:52:10.142Z,99.90
2022-12-31T11:54:36.820Z,99.90
2022-12-31T11:57:20.970Z,99.90
2022-12-31T11:59:47.832Z,99.90
2022-12-31T12:02:23.294Z,99.90
2022-12-31T12:04:50.830Z,99.90
2022-12-31T12:07:17.842Z,99.90
2022-12-31T12:09:45.864Z,99.90
2022-12-31T12:12:13.430Z,99.90
2022-12-31T12:14:43.129Z,99.90
2022-12-31T12:17:14.789Z,99.90
2022-12-31T12:19:53.478Z,99.90
2022-12-31T12:22:22.925Z,99.90
2022-12-31T12:25:20.587Z,99.90
2022-12-31T12:27:47.980Z,99.90
2022-12-31T12:30:19.174Z,99.90
2022-12-31T12:32:57.594Z,99.90
2022-12-31T12:35:28.185Z,99.90
2022-12-31T12:38:07.104Z,99.90
2022-12-31T12:40:34.786Z,99.90
2022-12-31T12:43:02.748Z,99.90
2022-12-31T12:45:42.363Z,99.90
2022-12-31T12:48:31.479Z,99.90
2022-12-31T12:50:59.283Z,99.90
2022-12-31T12:53:58.524Z,99.90
2022-12-31T12:56:37.257Z,99.90
2022-12-31T12:59:41.861Z,99.90
2022-12-31T13:02:08.506Z,99.90
2022-12-31T13:04:55.022Z,99.90
2022-12-31T13:07:36.681Z,99.90
2022-12-31T13:10:37.528Z,99.90
2022-12-31T13:13:26.019Z,99.90
2022-12-31T13:15:52.790Z,99.90
2022-12-31T13:18:42.487Z,99.90
2022-12-31T13:21:42.565Z,99.90
2022-12-31T13:24:52.145Z,99.90
2022-12-31T13:27:34.130Z,99.90
2022-12-31T13:30:04.565Z,99.90
2022-12-31T13:32:40.551Z,99.90
2022-12-31T13:35:47.630Z,99.90
2022-12-31T13:38:37.888Z,99.90
2022-12-31T13:41:25.157Z,99.90
2022-12-31T13:44:21.131Z,99.90
2022-12-31T13:47:08.647Z,99.90
2022-12-31T13:49:59.061Z,99.90
2022-12-31T13:52:46.248Z,99.90
2022-12-31T13:55:18.921Z,99.90
2022-12-31T13:57:56.413Z,99.90
2022-12-31T14:00:26.815Z,99.90
2022-12-31T14:03:08.626Z,99.90
2022-12-31T14:06:00.934Z,99.90
2022-12-31T14:08:28.155Z,99.90
2022-12-31T14:11:12.872Z,99.90
2022-12-31T14:13:55.008Z,99.90
2022-12-31T14:16:43.012Z,99.90
2022-12-31T14:19:23.658Z,99.90
2022-12-31T14:22:36.180Z,99.90
2022-12-31T14:25:08.907Z,99.90
2022-12-31T14:27:40.485Z,99.90
2022-12-31T14:30:21.548Z,99.90
2022-12-31T14:33:13.285Z,99.90
2022-12-31T14:36:14.376Z,99.90
2022-12-31T14:38:58.251Z,99.90
2022-12-31T14:41:45.279Z,99.90
2022-12-31T14:44:33.491Z,99.90
2022-12-31T14:47:17.442Z,99.90
2022-12-31T14:49:59.853Z,99.90
2022-12-31T14:52:48.892Z,99.90
2022-12-31T14:55:15.562Z,99.90
2022-12-31T14:58:25.740Z,99.90
2022-12-31T15:00:39.845Z,99.90
2022-12-31T15:03:15.686Z,99.90
2022-12-31T15:06:07.088Z,99.90
2022-12-31T15:08:54.656Z,99.90
2022-12-31T15:11:33.277Z,99.90
2022-12-31T15:14:36.885Z,99.90
2022-12-31T15:17:14.237Z,99.90
2022-12-31T15:20:13.211Z,99.90
2022-12-31T15:22:48.809Z,99.90
2022-12-31T15:25:28.096Z,99.90
2022-12-31T15:27:59.392Z,99.90
2022-12-31T15:30:41.228Z,99.90
2022-12-31T15:33:17.799Z,99.90
2022-12-31T15:35:54.089Z,99.90
2022-12-31T15:39:03.826Z,99.90
2022-12-31T15:41:42.922Z,99.90
2022-12-31T15:44:48.427Z,99.90
2022-12-31T15:47:35.376Z,99.90
2022-12-31T15:50:06.454Z,99.90
2022-12-31T15:52:42.859Z,99.90
2022-12-31T15:55:37.485Z,99.90
2022-12-31T15:58:06.931Z,99.90
2022-12-31T16:01:12.925Z,99.90
2022-12-31T16:03:57.978Z,99.90
2022-12-31T16:06:27.748Z,99.90
2022-12-31T16:08:55.666Z,99.90
2022-12-31T16:11:24.447Z,99.90
2022-12-31T16:13:54.027Z,99.90
2022-12-31T16:16:25.491Z,99.90
2022-12-31T16:18:53.272Z,99.90
2022-12-31T16:21:32.632Z,99.90
2022-12-31T16:24:04.294Z,99.90
2022-12-31T16:26:53.184Z,99.90
2022-12-31T16:29:22.784Z,99.90
2022-12-31T16:31:53.087Z,99.90
2022-12-31T16:34:22.780Z,99.90
2022-12-31T16:37:04.266Z,99.90
2022-12-31T16:39:35.664Z,99.90
2022-12-31T16:42:14.619Z,99.90
2022-12-31T16:44:41.739Z,99.90
2022-12-31T16:47:15.376Z,99.90
2022-12-31T16:49:43.012Z,99.90
2022-12-31T16:52:44.766Z,99.90
2022-12-31T16:55:23.797Z,99.90
2022-12-31T16:58:15.427Z,99.90
2022-12-31T17:00:42.970Z,99.90
2022-12-31T17:03:20.052Z,99.90
2022-12-31T17:06:05.345Z,99.90
2022-12-31T17:09:04.512Z,99.90
2022-12-31T17:11:31.285Z,99.90
2022-12-31T17:14:13.176Z,99.90
2022-12-31T17:17:02.689Z,99.90
2022-12-31T17:19:47.261Z,99.90
2022-12-31T17:22:35.875Z,99.90
2022-12-31T17:25:15.525Z,99.90
2022-12-31T17:28:02.121Z,99.90
2022-12-31T17:30:32.744Z,99.90
2022-12-31T17:33:09.908Z,99.90
2022-12-31T17:35:42.279Z,99.90
2022-12-31T17:38:18.426Z,99.90
2022-12-31T17:40:51.582Z,99.90
2022-12-31T17:43:21.128Z,99.90
2022-12-31T17:45:50.609Z,99.90
2022-12-31T17:48:19.808Z,99.90
2022-12-31T17:50:48.448Z,99.90
2022-12-31T17:53:15.665Z,99.90
2022-12-31T17:55:47.735Z,99.90
2022-12-31T17:58:30.120Z,99.90
2022-12-31T18:00:57.902Z,99.90
2022-12-31T18:03:24.972Z,99.90
2022-12-31T18:05:51.810Z,99.90
2022-12-31T18:08:18.468Z,99.90
2022-12-31T18:10:45.816Z,99.90
2022-12-31T18:13:19.973Z,99.90
2022-12-31T18:15:46.940Z,99.90
2022-12-31T18:18:24.471Z,99.90
2022-12-31T18:20:58.806Z,99.90
2022-12-31T18:23:46.042Z,99.90
2022-12-31T18:26:21.617Z,99.90
2022-12-31T18:28:49.274Z,99.90
2022-12-31T18:31:17.086Z,99.90
2022-12-31T18:33:43.940Z,99.90
2022-12-31T18:36:16.460Z,99.90
2022-12-31T18:38:43.346Z,99.90
2022-12-31T18:41:28.193Z,99.90
2022-12-31T18:43:57.341Z,99.90
2022-12-31T18:46:24.936Z,99.90
2022-12-31T18:48:51.728Z,99.90
2022-12-31T18:51:23.977Z,99.90
2022-12-31T18:53:53.223Z,99.90
2022-12-31T18:56:21.302Z,99.90
2022-12-31T18:58:48.875Z,99.90
2022-12-31T19:01:37.179Z,99.90
2022-12-31T19:04:27.504Z,99.90
2022-12-31T19:06:55.233Z,99.90
2022-12-31T19:12:12.430Z,99.90
2022-12-31T19:14:39.033Z,99.90
2022-12-31T19:19:31.316Z,99.90
2022-12-31T19:21:57.969Z,99.90
2022-12-31T19:24:27.066Z,99.90
2022-12-31T19:26:54.109Z,99.90
2022-12-31T19:29:23.202Z,99.90
2022-12-31T19:31:50.082Z,99.90
2022-12-31T19:34:16.830Z,99.90
2022-12-31T19:36:44.423Z,99.90
2022-12-31T19:39:16.003Z,99.90
2022-12-31T19:41:44.103Z,99.90
2022-12-31T19:44:18.099Z,99.90
2022-12-31T19:46:45.986Z,99.90
2022-12-31T19:49:14.271Z,99.90
2022-12-31T19:51:41.700Z,99.90
2022-12-31T19:54:08.862Z,99.90
2022-12-31T19:56:35.633Z,99.90
2022-12-31T19:59:07.008Z,99.90
2022-12-31T20:01:34.204Z,99.90
2022-12-31T20:04:01.303Z,99.90
2022-12-31T20:06:27.987Z,99.90
2022-12-31T20:08:54.927Z,99.90
2022-12-31T20:11:24.088Z,99.90
2022-12-31T20:13:54.739Z,99.90
2022-12-31T20:16:24.413Z,99.90
2022-12-31T20:18:51.349Z,99.90
2022-12-31T20:21:27.303Z,99.90
2022-12-31T20:23:54.976Z,99.90
2022-12-31T20:26:23.867Z,99.90
2022-12-31T20:28:51.097Z,99.90
2022-12-31T20:31:21.338Z,99.90
2022-12-31T20:33:48.156Z,99.90
2022-12-31T20:36:16.419Z,99.90
2022-12-31T20:38:43.706Z,99.90
2022-12-31T20:41:12.945Z,99.90
2022-12-31T20:43:40.161Z,99.90
2022-12-31T20:46:14.319Z,99.90
2022-12-31T20:48:41.675Z,99.90
2022-12-31T20:51:08.542Z,99.10
2022-12-31T20:53:35.200Z,99.70
2022-12-31T20:56:06.592Z,99.90
2022-12-31T20:58:33.669Z,99.90
2022-12-31T21:01:00.556Z,99.90
2022-12-31T21:06:15.382Z,99.90
2022-12-31T21:08:42.212Z,99.70
2022-12-31T21:11:29.042Z,99.80
2022-12-31T21:13:57.522Z,99.90
2022-12-31T21:16:24.460Z,98.90
2022-12-31T21:18:51.191Z,99.90
2022-12-31T21:21:18.171Z,99.90
2022-12-31T21:23:44.917Z,99.50
2022-12-31T21:26:11.733Z,99.90
2022-12-31T21:28:38.859Z,99.90
2022-12-31T21:31:07.444Z,99.90
2022-12-31T21:33:34.943Z,99.60
2022-12-31T21:36:04.671Z,99.00
2022-12-31T21:38:31.702Z,99.60
2022-12-31T21:41:06.098Z,99.90
2022-12-31T21:43:33.190Z,99.90
2022-12-31T21:46:02.174Z,99.90
2022-12-31T21:48:28.943Z,99.80
2022-12-31T21:51:05.607Z,99.80
2022-12-31T21:53:36.851Z,99.90
2022-12-31T21:56:14.664Z,99.90
2022-12-31T21:59:20.288Z,98.60
2022-12-31T22:02:06.017Z,98.60
2022-12-31T22:07:19.354Z,99.30
2022-12-31T22:09:46.087Z,98.60
2022-12-31T22:12:12.753Z,98.80
2022-12-31T22:14:39.396Z,97.40
2022-12-31T22:17:26.110Z,97.60
2022-12-31T22:20:25.226Z,97.90
2022-12-31T22:22:39.399Z,96.50
2022-12-31T22:25:06.262Z,97.40
2022-12-31T22:27:32.849Z,97.90
2022-12-31T22:29:59.548Z,96.50
2022-12-31T22:32:26.217Z,97.60
2022-12-31T22:34:52.850Z,97.00
2022-12-31T22:37:54.327Z,97.40
2022-12-31T22:40:06.510Z,95.70
2022-12-31T22:42:33.244Z,97.50
2022-12-31T22:44:59.868Z,97.10
2022-12-31T22:47:26.493Z,97.10
2022-12-31T22:49:53.120Z,96.20
2022-12-31T22:52:19.718Z,98.10
2022-12-31T22:54:46.514Z,98.50
2022-12-31T22:57:19.678Z,97.30
2022-12-31T22:59:46.923Z,98.50
2022-12-31T23:02:13.847Z,97.90
2022-12-31T23:04:40.554Z,98.70
2022-12-31T23:07:07.572Z,99.30
2022-12-31T23:09:52.758Z,99.40
2022-12-31T23:12:19.582Z,99.90
2022-12-31T23:15:04.860Z,99.40
2022-12-31T23:17:50.369Z,98.90
2022-12-31T23:20:39.011Z,99.70
2022-12-31T23:23:11.690Z,99.00
2022-12-31T23:25:45.144Z,98.50
2022-12-31T23:28:14.871Z,97.10
2022-12-31T23:30:43.022Z,97.70
2022-12-31T23:33:15.742Z,98.60
2022-12-31T23:35:42.957Z,98.80
2022-12-31T23:38:09.771Z,98.20
2022-12-31T23:40:36.439Z,98.20
2022-12-31T23:43:07.851Z,98.70
2022-12-31T23:45:35.027Z,98.80
2022-12-31T23:48:02.053Z,99.40
2022-12-31T23:50:28.828Z,97.90
2022-12-31T23:52:55.591Z,98.50
2022-12-31T23:55:22.373Z,98.90
2022-12-31T23:57:49.048Z,99.40
